sensor_id;sensor_type;location;lat;lon;timestamp;P1;durP1;ratioP1;P2;durP2;ratioP2
64214;SDS011;54441;52.110;5.252;2022-07-03T00:00:27;3.4;;;3.1;;
64214;SDS011;54441;52.110;5.252;2022-07-03T00:02:14;4.3;;;2.6;;
64214;SDS011;54441;52.110;5.252;2022-07-03T00:04:01;3.4;;;2.6;;
64214;SDS011;54441;52.110;5.252;2022-07-03T00:05:48;5.8;;;3.3;;
64214;SDS011;54441;52.110;5.252;2022-07-03T00:07:36;4.2;;;2.8;;
64214;SDS011;54441;52.110;5.252;2022-07-03T00:09:23;3.4;;;2.8;;
64214;SDS011;54441;52.110;5.252;2022-07-03T00:12:58;5.5;;;2.8;;
64214;SDS011;54441;52.110;5.252;2022-07-03T00:14:45;3.1;;;2.8;;
64214;SDS011;54441;52.110;5.252;2022-07-03T00:16:32;3.4;;;2.8;;
64214;SDS011;54441;52.110;5.252;2022-07-03T00:18:19;4.1;;;3.4;;
64214;SDS011;54441;52.110;5.252;2022-07-03T00:20:07;3.5;;;3.2;;
64214;SDS011;54441;52.110;5.252;2022-07-03T00:21:55;4.61;;;3.0;;
64214;SDS011;54441;52.110;5.252;2022-07-03T00:23:51;6.9;;;3.0;;
64214;SDS011;54441;52.110;5.252;2022-07-03T00:27:29;5.3;;;3.1;;
64214;SDS011;54441;52.110;5.252;2022-07-03T00:29:20;3.5;;;3.1;;
64214;SDS011;54441;52.110;5.252;2022-07-03T00:31:10;3.5;;;2.7;;
64214;SDS011;54441;52.110;5.252;2022-07-03T00:32:58;6.9;;;3.8;;
64214;SDS011;54441;52.110;5.252;2022-07-03T00:34:47;3.3;;;3.0;;
64214;SDS011;54441;52.110;5.252;2022-07-03T00:36:37;3.3;;;2.7;;
64214;SDS011;54441;52.110;5.252;2022-07-03T00:40:13;7.2;;;3.3;;
64214;SDS011;54441;52.110;5.252;2022-07-03T00:42:00;3.5;;;2.9;;
64214;SDS011;54441;52.110;5.252;2022-07-03T00:43:49;3.0;;;2.8;;
64214;SDS011;54441;52.110;5.252;2022-07-03T00:45:36;7.1;;;3.2;;
64214;SDS011;54441;52.110;5.252;2022-07-03T00:47:32;4.3;;;3.0;;
64214;SDS011;54441;52.110;5.252;2022-07-03T00:49:23;3.7;;;2.7;;
64214;SDS011;54441;52.110;5.252;2022-07-03T00:51:11;5.11;;;3.3;;
64214;SDS011;54441;52.110;5.252;2022-07-03T00:54:55;3.3;;;2.9;;
64214;SDS011;54441;52.110;5.252;2022-07-03T00:56:46;5.5;;;3.1;;
64214;SDS011;54441;52.110;5.252;2022-07-03T00:58:37;3.5;;;3.2;;
64214;SDS011;54441;52.110;5.252;2022-07-03T01:00:26;3.9;;;3.1;;
64214;SDS011;54441;52.110;5.252;2022-07-03T01:02:15;6.0;;;3.3;;
64214;SDS011;54441;52.110;5.252;2022-07-03T01:04:21;4.3;;;3.1;;
64214;SDS011;54441;52.110;5.252;2022-07-03T01:06:26;4.5;;;3.0;;
64214;SDS011;54441;52.110;5.252;2022-07-03T01:08:24;3.4;;;3.1;;
64214;SDS011;54441;52.110;5.252;2022-07-03T01:10:26;2.9;;;2.7;;
64214;SDS011;54441;52.110;5.252;2022-07-03T01:12:27;3.7;;;3.4;;
64214;SDS011;54441;52.110;5.252;2022-07-03T01:14:38;3.9;;;2.9;;
64214;SDS011;54441;52.110;5.252;2022-07-03T01:16:37;3.4;;;3.0;;
64214;SDS011;54441;52.110;5.252;2022-07-03T01:18:29;3.2;;;2.9;;
64214;SDS011;54441;52.110;5.252;2022-07-03T01:20:26;5.3;;;3.1;;
64214;SDS011;54441;52.110;5.252;2022-07-03T01:24:28;3.7;;;2.7;;
64214;SDS011;54441;52.110;5.252;2022-07-03T01:26:48;4.0;;;3.4;;
64214;SDS011;54441;52.110;5.252;2022-07-03T01:28:42;3.4;;;3.1;;
64214;SDS011;54441;52.110;5.252;2022-07-03T01:32:23;4.7;;;3.2;;
64214;SDS011;54441;52.110;5.252;2022-07-03T01:34:18;3.4;;;3.1;;
64214;SDS011;54441;52.110;5.252;2022-07-03T01:36:07;3.3;;;2.9;;
64214;SDS011;54441;52.110;5.252;2022-07-03T01:37:55;2.8;;;2.6;;
64214;SDS011;54441;52.110;5.252;2022-07-03T01:39:48;4.5;;;3.5;;
64214;SDS011;54441;52.110;5.252;2022-07-03T01:41:39;5.11;;;3.3;;
64214;SDS011;54441;52.110;5.252;2022-07-03T01:43:27;3.3;;;3.0;;
64214;SDS011;54441;52.110;5.252;2022-07-03T01:47:05;5.11;;;3.6;;
64214;SDS011;54441;52.110;5.252;2022-07-03T01:48:53;4.1;;;3.6;;
64214;SDS011;54441;52.110;5.252;2022-07-03T01:50:43;3.7;;;3.4;;
64214;SDS011;54441;52.110;5.252;2022-07-03T01:52:33;3.5;;;3.2;;
64214;SDS011;54441;52.110;5.252;2022-07-03T01:54:23;3.2;;;2.9;;
64214;SDS011;54441;52.110;5.252;2022-07-03T01:56:11;4.61;;;2.9;;
64214;SDS011;54441;52.110;5.252;2022-07-03T01:58:00;3.6;;;3.3;;
64214;SDS011;54441;52.110;5.252;2022-07-03T02:01:37;3.2;;;2.9;;
64214;SDS011;54441;52.110;5.252;2022-07-03T02:03:33;4.1;;;3.3;;
64214;SDS011;54441;52.110;5.252;2022-07-03T02:05:26;4.2;;;3.2;;
64214;SDS011;54441;52.110;5.252;2022-07-03T02:07:20;4.2;;;3.6;;
64214;SDS011;54441;52.110;5.252;2022-07-03T02:09:17;3.8;;;3.4;;
64214;SDS011;54441;52.110;5.252;2022-07-03T02:11:11;3.5;;;3.2;;
64214;SDS011;54441;52.110;5.252;2022-07-03T02:13:05;4.8;;;3.1;;
64214;SDS011;54441;52.110;5.252;2022-07-03T02:15:02;3.5;;;3.2;;
64214;SDS011;54441;52.110;5.252;2022-07-03T02:16:54;3.4;;;3.1;;
64214;SDS011;54441;52.110;5.252;2022-07-03T02:21:02;4.3;;;3.6;;
64214;SDS011;54441;52.110;5.252;2022-07-03T02:22:51;4.41;;;3.5;;
64214;SDS011;54441;52.110;5.252;2022-07-03T02:24:46;4.1;;;3.3;;
64214;SDS011;54441;52.110;5.252;2022-07-03T02:26:34;3.5;;;3.0;;
64214;SDS011;54441;52.110;5.252;2022-07-03T02:28:28;3.4;;;3.1;;
64214;SDS011;54441;52.110;5.252;2022-07-03T02:30:39;3.5;;;3.2;;
64214;SDS011;54441;52.110;5.252;2022-07-03T02:32:30;4.7;;;3.3;;
64214;SDS011;54441;52.110;5.252;2022-07-03T02:34:22;4.8;;;3.2;;
64214;SDS011;54441;52.110;5.252;2022-07-03T02:36:11;4.1;;;3.7;;
64214;SDS011;54441;52.110;5.252;2022-07-03T02:38:04;4.2;;;2.8;;
64214;SDS011;54441;52.110;5.252;2022-07-03T02:39:57;3.8;;;3.3;;
64214;SDS011;54441;52.110;5.252;2022-07-03T02:41:52;2.9;;;2.7;;
64214;SDS011;54441;52.110;5.252;2022-07-03T02:45:47;21.2;;;4.5;;
64214;SDS011;54441;52.110;5.252;2022-07-03T02:47:39;4.41;;;3.7;;
64214;SDS011;54441;52.110;5.252;2022-07-03T02:49:41;3.3;;;3.0;;
64214;SDS011;54441;52.110;5.252;2022-07-03T02:51:36;5.6;;;3.5;;
64214;SDS011;54441;52.110;5.252;2022-07-03T02:53:30;3.7;;;3.3;;
64214;SDS011;54441;52.110;5.252;2022-07-03T02:55:40;3.8;;;3.5;;
64214;SDS011;54441;52.110;5.252;2022-07-03T02:57:30;3.1;;;2.7;;
64214;SDS011;54441;52.110;5.252;2022-07-03T02:59:27;7.4;;;3.2;;
64214;SDS011;54441;52.110;5.252;2022-07-03T03:01:36;7.4;;;3.2;;
64214;SDS011;54441;52.110;5.252;2022-07-03T03:03:33;4.3;;;3.5;;
64214;SDS011;54441;52.110;5.252;2022-07-03T03:05:24;3.6;;;3.0;;
64214;SDS011;54441;52.110;5.252;2022-07-03T03:07:16;3.6;;;3.3;;
64214;SDS011;54441;52.110;5.252;2022-07-03T03:09:11;6.7;;;3.6;;
64214;SDS011;54441;52.110;5.252;2022-07-03T03:12:58;4.7;;;4.2;;
64214;SDS011;54441;52.110;5.252;2022-07-03T03:14:54;4.61;;;3.7;;
64214;SDS011;54441;52.110;5.252;2022-07-03T03:16:50;4.5;;;4.0;;
64214;SDS011;54441;52.110;5.252;2022-07-03T03:18:41;4.1;;;3.7;;
64214;SDS011;54441;52.110;5.252;2022-07-03T03:20:29;5.2;;;3.6;;
64214;SDS011;54441;52.110;5.252;2022-07-03T03:22:20;5.7;;;3.7;;
64214;SDS011;54441;52.110;5.252;2022-07-03T03:24:26;3.8;;;3.5;;
64214;SDS011;54441;52.110;5.252;2022-07-03T03:26:15;3.6;;;3.3;;
64214;SDS011;54441;52.110;5.252;2022-07-03T03:28:05;8.0;;;3.7;;
64214;SDS011;54441;52.110;5.252;2022-07-03T03:31:39;7.2;;;3.9;;
64214;SDS011;54441;52.110;5.252;2022-07-03T03:33:26;3.7;;;3.4;;
64214;SDS011;54441;52.110;5.252;2022-07-03T03:35:13;3.9;;;3.6;;
64214;SDS011;54441;52.110;5.252;2022-07-03T03:37:02;4.2;;;3.0;;
64214;SDS011;54441;52.110;5.252;2022-07-03T03:38:49;4.91;;;3.6;;
64214;SDS011;54441;52.110;5.252;2022-07-03T03:40:35;4.8;;;3.5;;
64214;SDS011;54441;52.110;5.252;2022-07-03T03:44:09;4.8;;;3.5;;
64214;SDS011;54441;52.110;5.252;2022-07-03T03:45:57;5.0;;;3.7;;
64214;SDS011;54441;52.110;5.252;2022-07-03T03:47:44;3.7;;;3.3;;
64214;SDS011;54441;52.110;5.252;2022-07-03T03:49:31;3.9;;;3.5;;
64214;SDS011;54441;52.110;5.252;2022-07-03T03:51:18;3.9;;;3.5;;
64214;SDS011;54441;52.110;5.252;2022-07-03T03:53:05;3.8;;;3.4;;
64214;SDS011;54441;52.110;5.252;2022-07-03T03:56:40;12.1;;;4.3;;
64214;SDS011;54441;52.110;5.252;2022-07-03T03:58:27;3.9;;;3.5;;
64214;SDS011;54441;52.110;5.252;2022-07-03T04:00:16;3.5;;;3.2;;
64214;SDS011;54441;52.110;5.252;2022-07-03T04:02:04;4.7;;;3.6;;
64214;SDS011;54441;52.110;5.252;2022-07-03T04:03:51;4.3;;;3.1;;
64214;SDS011;54441;52.110;5.252;2022-07-03T04:05:37;3.1;;;2.8;;
64214;SDS011;54441;52.110;5.252;2022-07-03T04:09:11;4.2;;;3.9;;
64214;SDS011;54441;52.110;5.252;2022-07-03T04:10:58;3.6;;;3.2;;
64214;SDS011;54441;52.110;5.252;2022-07-03T04:12:46;5.11;;;3.6;;
64214;SDS011;54441;52.110;5.252;2022-07-03T04:14:34;6.4;;;3.6;;
64214;SDS011;54441;52.110;5.252;2022-07-03T04:16:20;5.4;;;4.1;;
64214;SDS011;54441;52.110;5.252;2022-07-03T04:18:07;4.1;;;3.5;;
64214;SDS011;54441;52.110;5.252;2022-07-03T04:21:41;3.7;;;3.4;;
64214;SDS011;54441;52.110;5.252;2022-07-03T04:23:29;6.3;;;3.4;;
64214;SDS011;54441;52.110;5.252;2022-07-03T04:25:16;4.1;;;3.7;;
64214;SDS011;54441;52.110;5.252;2022-07-03T04:27:03;6.3;;;4.7;;
64214;SDS011;54441;52.110;5.252;2022-07-03T04:28:50;3.7;;;3.4;;
64214;SDS011;54441;52.110;5.252;2022-07-03T04:32:24;3.9;;;3.4;;
64214;SDS011;54441;52.110;5.252;2022-07-03T04:34:12;5.2;;;3.7;;
64214;SDS011;54441;52.110;5.252;2022-07-03T04:35:59;5.2;;;3.3;;
64214;SDS011;54441;52.110;5.252;2022-07-03T04:37:46;5.6;;;3.4;;
64214;SDS011;54441;52.110;5.252;2022-07-03T04:39:33;3.7;;;3.4;;
64214;SDS011;54441;52.110;5.252;2022-07-03T04:41:21;3.8;;;3.3;;
64214;SDS011;54441;52.110;5.252;2022-07-03T04:44:53;3.0;;;2.8;;
64214;SDS011;54441;52.110;5.252;2022-07-03T04:46:41;3.6;;;3.3;;
64214;SDS011;54441;52.110;5.252;2022-07-03T04:48:27;3.9;;;3.6;;
64214;SDS011;54441;52.110;5.252;2022-07-03T04:50:15;5.2;;;3.9;;
64214;SDS011;54441;52.110;5.252;2022-07-03T04:52:01;3.8;;;3.4;;
64214;SDS011;54441;52.110;5.252;2022-07-03T04:53:47;4.61;;;3.5;;
64214;SDS011;54441;52.110;5.252;2022-07-03T04:57:20;3.9;;;3.2;;
64214;SDS011;54441;52.110;5.252;2022-07-03T04:59:08;3.9;;;3.5;;
64214;SDS011;54441;52.110;5.252;2022-07-03T05:00:55;3.5;;;3.2;;
64214;SDS011;54441;52.110;5.252;2022-07-03T05:02:42;3.6;;;3.1;;
64214;SDS011;54441;52.110;5.252;2022-07-03T05:04:29;4.61;;;2.6;;
64214;SDS011;54441;52.110;5.252;2022-07-03T05:06:17;2.9;;;2.7;;
64214;SDS011;54441;52.110;5.252;2022-07-03T05:09:51;3.5;;;3.2;;
64214;SDS011;54441;52.110;5.252;2022-07-03T05:11:39;5.2;;;3.3;;
64214;SDS011;54441;52.110;5.252;2022-07-03T05:13:27;4.7;;;3.2;;
64214;SDS011;54441;52.110;5.252;2022-07-03T05:15:14;3.6;;;3.3;;
64214;SDS011;54441;52.110;5.252;2022-07-03T05:17:00;5.0;;;3.1;;
64214;SDS011;54441;52.110;5.252;2022-07-03T05:18:47;5.0;;;3.1;;
64214;SDS011;54441;52.110;5.252;2022-07-03T05:22:20;3.3;;;3.0;;
64214;SDS011;54441;52.110;5.252;2022-07-03T05:24:07;3.5;;;3.2;;
64214;SDS011;54441;52.110;5.252;2022-07-03T05:25:55;3.1;;;2.7;;
64214;SDS011;54441;52.110;5.252;2022-07-03T05:27:42;3.6;;;3.2;;
64214;SDS011;54441;52.110;5.252;2022-07-03T05:29:30;3.0;;;2.5;;
64214;SDS011;54441;52.110;5.252;2022-07-03T05:33:03;3.8;;;2.8;;
64214;SDS011;54441;52.110;5.252;2022-07-03T05:34:50;6.6;;;2.7;;
64214;SDS011;54441;52.110;5.252;2022-07-03T05:36:37;2.9;;;2.6;;
64214;SDS011;54441;52.110;5.252;2022-07-03T05:41:30;5.3;;;2.7;;
64214;SDS011;54441;52.110;5.252;2022-07-03T05:43:16;5.3;;;2.7;;
64214;SDS011;54441;52.110;5.252;2022-07-03T05:45:04;3.2;;;2.31;;
64214;SDS011;54441;52.110;5.252;2022-07-03T05:46:51;2.8;;;2.1;;
64214;SDS011;54441;52.110;5.252;2022-07-03T05:48:38;3.5;;;2.4;;
64214;SDS011;54441;52.110;5.252;2022-07-03T05:50:25;4.61;;;2.21;;
64214;SDS011;54441;52.110;5.252;2022-07-03T05:54:00;2.8;;;2.1;;
64214;SDS011;54441;52.110;5.252;2022-07-03T05:55:48;3.7;;;2.1;;
64214;SDS011;54441;52.110;5.252;2022-07-03T05:57:35;3.8;;;2.1;;
64214;SDS011;54441;52.110;5.252;2022-07-03T05:59:22;2.5;;;1.9;;
64214;SDS011;54441;52.110;5.252;2022-07-03T06:01:09;5.3;;;2.0;;
64214;SDS011;54441;52.110;5.252;2022-07-03T06:02:56;3.8;;;1.9;;
64214;SDS011;54441;52.110;5.252;2022-07-03T06:06:30;6.7;;;2.31;;
64214;SDS011;54441;52.110;5.252;2022-07-03T06:08:17;6.9;;;2.21;;
64214;SDS011;54441;52.110;5.252;2022-07-03T06:10:05;5.5;;;2.21;;
64214;SDS011;54441;52.110;5.252;2022-07-03T06:11:51;5.6;;;1.7;;
64214;SDS011;54441;52.110;5.252;2022-07-03T06:13:39;8.4;;;2.7;;
64214;SDS011;54441;52.110;5.252;2022-07-03T06:15:26;3.8;;;1.5;;
64214;SDS011;54441;52.110;5.252;2022-07-03T06:19:00;6.3;;;1.7;;
64214;SDS011;54441;52.110;5.252;2022-07-03T06:20:47;8.2;;;2.31;;
64214;SDS011;54441;52.110;5.252;2022-07-03T06:22:34;5.4;;;1.9;;
64214;SDS011;54441;52.110;5.252;2022-07-03T06:24:22;6.5;;;1.6;;
64214;SDS011;54441;52.110;5.252;2022-07-03T06:26:09;3.2;;;1.7;;
64214;SDS011;54441;52.110;5.252;2022-07-03T06:27:55;6.8;;;2.1;;
64214;SDS011;54441;52.110;5.252;2022-07-03T06:31:31;5.8;;;1.7;;
64214;SDS011;54441;52.110;5.252;2022-07-03T06:33:18;4.91;;;1.9;;
64214;SDS011;54441;52.110;5.252;2022-07-03T06:35:05;5.8;;;2.31;;
64214;SDS011;54441;52.110;5.252;2022-07-03T06:36:52;8.4;;;2.21;;
64214;SDS011;54441;52.110;5.252;2022-07-03T06:38:39;6.8;;;2.1;;
64214;SDS011;54441;52.110;5.252;2022-07-03T06:40:25;8.5;;;2.4;;
64214;SDS011;54441;52.110;5.252;2022-07-03T06:44:00;8.81;;;1.9;;
64214;SDS011;54441;52.110;5.252;2022-07-03T06:45:47;5.2;;;2.0;;
64214;SDS011;54441;52.110;5.252;2022-07-03T06:47:36;5.6;;;2.1;;
64214;SDS011;54441;52.110;5.252;2022-07-03T06:49:23;5.6;;;2.1;;
64214;SDS011;54441;52.110;5.252;2022-07-03T06:51:10;8.1;;;1.6;;
64214;SDS011;54441;52.110;5.252;2022-07-03T06:52:57;4.5;;;1.6;;
64214;SDS011;54441;52.110;5.252;2022-07-03T06:56:30;7.1;;;2.31;;
64214;SDS011;54441;52.110;5.252;2022-07-03T06:58:17;4.41;;;1.5;;
64214;SDS011;54441;52.110;5.252;2022-07-03T07:00:05;5.5;;;1.8;;
64214;SDS011;54441;52.110;5.252;2022-07-03T07:01:53;7.8;;;1.8;;
64214;SDS011;54441;52.110;5.252;2022-07-03T07:03:40;5.5;;;2.0;;
64214;SDS011;54441;52.110;5.252;2022-07-03T07:05:27;3.8;;;1.5;;
64214;SDS011;54441;52.110;5.252;2022-07-03T07:09:00;4.8;;;2.0;;
64214;SDS011;54441;52.110;5.252;2022-07-03T07:10:47;4.1;;;1.6;;
64214;SDS011;54441;52.110;5.252;2022-07-03T07:12:35;4.91;;;2.1;;
64214;SDS011;54441;52.110;5.252;2022-07-03T07:14:22;7.1;;;2.21;;
64214;SDS011;54441;52.110;5.252;2022-07-03T07:16:09;6.0;;;1.7;;
64214;SDS011;54441;52.110;5.252;2022-07-03T07:19:43;6.0;;;2.4;;
64214;SDS011;54441;52.110;5.252;2022-07-03T07:21:30;4.41;;;1.7;;
64214;SDS011;54441;52.110;5.252;2022-07-03T07:23:18;6.8;;;2.1;;
64214;SDS011;54441;52.110;5.252;2022-07-03T07:25:05;5.8;;;2.5;;
64214;SDS011;54441;52.110;5.252;2022-07-03T07:26:52;8.81;;;2.5;;
64214;SDS011;54441;52.110;5.252;2022-07-03T07:28:40;3.5;;;1.9;;
64214;SDS011;54441;52.110;5.252;2022-07-03T07:32:14;4.61;;;2.1;;
64214;SDS011;54441;52.110;5.252;2022-07-03T07:34:04;4.61;;;2.21;;
64214;SDS011;54441;52.110;5.252;2022-07-03T07:35:51;3.4;;;1.6;;
64214;SDS011;54441;52.110;5.252;2022-07-03T07:37:38;5.7;;;2.31;;
64214;SDS011;54441;52.110;5.252;2022-07-03T07:39:26;4.91;;;2.0;;
64214;SDS011;54441;52.110;5.252;2022-07-03T07:41:13;3.9;;;1.7;;
64214;SDS011;54441;52.110;5.252;2022-07-03T07:44:48;2.5;;;1.8;;
64214;SDS011;54441;52.110;5.252;2022-07-03T07:46:34;3.8;;;1.8;;
64214;SDS011;54441;52.110;5.252;2022-07-03T07:48:21;5.9;;;1.8;;
64214;SDS011;54441;52.110;5.252;2022-07-03T07:50:08;4.0;;;1.9;;
64214;SDS011;54441;52.110;5.252;2022-07-03T07:51:56;5.2;;;2.4;;
64214;SDS011;54441;52.110;5.252;2022-07-03T07:53:43;6.0;;;1.7;;
64214;SDS011;54441;52.110;5.252;2022-07-03T07:57:18;5.0;;;1.8;;
64214;SDS011;54441;52.110;5.252;2022-07-03T07:59:05;3.8;;;2.31;;
64214;SDS011;54441;52.110;5.252;2022-07-03T08:06:59;3.5;;;1.5;;
64214;SDS011;54441;52.110;5.252;2022-07-03T08:08:46;6.7;;;2.1;;
64214;SDS011;54441;52.110;5.252;2022-07-03T08:10:34;3.7;;;1.8;;
64214;SDS011;54441;52.110;5.252;2022-07-03T08:12:23;4.3;;;2.0;;
64214;SDS011;54441;52.110;5.252;2022-07-03T08:15:58;4.8;;;2.0;;
64214;SDS011;54441;52.110;5.252;2022-07-03T08:17:46;5.3;;;1.6;;
64214;SDS011;54441;52.110;5.252;2022-07-03T08:19:33;4.0;;;1.7;;
64214;SDS011;54441;52.110;5.252;2022-07-03T08:21:20;4.7;;;1.4;;
64214;SDS011;54441;52.110;5.252;2022-07-03T08:23:07;3.7;;;1.5;;
64214;SDS011;54441;52.110;5.252;2022-07-03T08:26:41;3.6;;;1.4;;
64214;SDS011;54441;52.110;5.252;2022-07-03T08:28:29;5.0;;;1.7;;
64214;SDS011;54441;52.110;5.252;2022-07-03T08:30:17;3.7;;;1.3;;
64214;SDS011;54441;52.110;5.252;2022-07-03T08:32:07;4.41;;;1.5;;
64214;SDS011;54441;52.110;5.252;2022-07-03T08:33:54;6.2;;;1.4;;
64214;SDS011;54441;52.110;5.252;2022-07-03T08:35:41;5.5;;;2.0;;
64214;SDS011;54441;52.110;5.252;2022-07-03T08:39:18;2.9;;;1.2;;
64214;SDS011;54441;52.110;5.252;2022-07-03T08:41:05;3.2;;;1.4;;
64214;SDS011;54441;52.110;5.252;2022-07-03T08:42:53;3.7;;;1.5;;
64214;SDS011;54441;52.110;5.252;2022-07-03T08:44:43;3.9;;;1.3;;
64214;SDS011;54441;52.110;5.252;2022-07-03T08:46:31;9.31;;;1.8;;
64214;SDS011;54441;52.110;5.252;2022-07-03T08:48:20;3.1;;;1.4;;
64214;SDS011;54441;52.110;5.252;2022-07-03T08:50:10;3.1;;;1.6;;
64214;SDS011;54441;52.110;5.252;2022-07-03T08:53:47;4.8;;;1.5;;
64214;SDS011;54441;52.110;5.252;2022-07-03T08:55:34;4.8;;;1.3;;
64214;SDS011;54441;52.110;5.252;2022-07-03T08:57:21;2.0;;;1.4;;
64214;SDS011;54441;52.110;5.252;2022-07-03T08:59:10;3.0;;;1.2;;
64214;SDS011;54441;52.110;5.252;2022-07-03T09:00:58;4.2;;;1.5;;
64214;SDS011;54441;52.110;5.252;2022-07-03T09:02:46;4.91;;;1.4;;
64214;SDS011;54441;52.110;5.252;2022-07-03T09:06:23;3.0;;;1.5;;
64214;SDS011;54441;52.110;5.252;2022-07-03T09:08:10;3.2;;;1.3;;
64214;SDS011;54441;52.110;5.252;2022-07-03T09:09:57;4.61;;;1.8;;
64214;SDS011;54441;52.110;5.252;2022-07-03T09:11:46;6.9;;;2.1;;
64214;SDS011;54441;52.110;5.252;2022-07-03T09:13:34;5.11;;;2.0;;
64214;SDS011;54441;52.110;5.252;2022-07-03T09:15:22;7.2;;;1.6;;
64214;SDS011;54441;52.110;5.252;2022-07-03T09:18:57;4.5;;;1.7;;
64214;SDS011;54441;52.110;5.252;2022-07-03T09:20:44;3.8;;;2.0;;
64214;SDS011;54441;52.110;5.252;2022-07-03T09:22:32;5.3;;;2.4;;
64214;SDS011;54441;52.110;5.252;2022-07-03T09:24:21;6.0;;;2.31;;
64214;SDS011;54441;52.110;5.252;2022-07-03T09:26:12;3.6;;;1.9;;
64214;SDS011;54441;52.110;5.252;2022-07-03T09:28:00;7.1;;;2.1;;
64214;SDS011;54441;52.110;5.252;2022-07-03T09:29:51;5.3;;;2.21;;
64214;SDS011;54441;52.110;5.252;2022-07-03T09:33:52;4.2;;;1.9;;
64214;SDS011;54441;52.110;5.252;2022-07-03T09:35:41;4.91;;;1.8;;
64214;SDS011;54441;52.110;5.252;2022-07-03T09:37:31;5.7;;;1.6;;
64214;SDS011;54441;52.110;5.252;2022-07-03T09:39:19;4.1;;;2.21;;
64214;SDS011;54441;52.110;5.252;2022-07-03T09:41:09;2.9;;;2.1;;
64214;SDS011;54441;52.110;5.252;2022-07-03T09:42:58;3.1;;;1.8;;
64214;SDS011;54441;52.110;5.252;2022-07-03T09:44:46;3.7;;;1.8;;
64214;SDS011;54441;52.110;5.252;2022-07-03T09:46:33;5.11;;;1.9;;
64214;SDS011;54441;52.110;5.252;2022-07-03T09:50:13;3.9;;;2.0;;
64214;SDS011;54441;52.110;5.252;2022-07-03T09:52:01;3.5;;;1.6;;
64214;SDS011;54441;52.110;5.252;2022-07-03T09:53:49;3.0;;;1.5;;
64214;SDS011;54441;52.110;5.252;2022-07-03T09:55:39;3.5;;;1.8;;
64214;SDS011;54441;52.110;5.252;2022-07-03T09:57:27;2.6;;;2.0;;
64214;SDS011;54441;52.110;5.252;2022-07-03T09:59:16;2.9;;;1.5;;
64214;SDS011;54441;52.110;5.252;2022-07-03T10:03:04;3.3;;;1.5;;
64214;SDS011;54441;52.110;5.252;2022-07-03T10:04:56;5.9;;;2.4;;
64214;SDS011;54441;52.110;5.252;2022-07-03T10:06:58;4.1;;;1.7;;
64214;SDS011;54441;52.110;5.252;2022-07-03T10:08:47;2.6;;;1.2;;
64214;SDS011;54441;52.110;5.252;2022-07-03T10:10:34;5.0;;;1.9;;
64214;SDS011;54441;52.110;5.252;2022-07-03T10:12:23;3.7;;;1.5;;
64214;SDS011;54441;52.110;5.252;2022-07-03T10:14:12;3.0;;;1.7;;
64214;SDS011;54441;52.110;5.252;2022-07-03T10:16:01;3.3;;;1.9;;
64214;SDS011;54441;52.110;5.252;2022-07-03T10:19:38;3.9;;;1.7;;
64214;SDS011;54441;52.110;5.252;2022-07-03T10:21:25;3.5;;;1.8;;
64214;SDS011;54441;52.110;5.252;2022-07-03T10:23:14;1.5;;;1.3;;
64214;SDS011;54441;52.110;5.252;2022-07-03T10:25:02;3.3;;;1.6;;
64214;SDS011;54441;52.110;5.252;2022-07-03T10:26:50;2.9;;;1.5;;
64214;SDS011;54441;52.110;5.252;2022-07-03T10:28:38;1.7;;;1.4;;
64214;SDS011;54441;52.110;5.252;2022-07-03T10:32:14;3.6;;;1.7;;
64214;SDS011;54441;52.110;5.252;2022-07-03T10:34:03;3.6;;;1.5;;
64214;SDS011;54441;52.110;5.252;2022-07-03T10:35:52;2.8;;;1.5;;
64214;SDS011;54441;52.110;5.252;2022-07-03T10:37:44;2.5;;;1.4;;
64214;SDS011;54441;52.110;5.252;2022-07-03T10:39:49;2.9;;;1.8;;
64214;SDS011;54441;52.110;5.252;2022-07-03T10:45:05;1.9;;;1.5;;
64214;SDS011;54441;52.110;5.252;2022-07-03T10:46:58;2.9;;;1.4;;
64214;SDS011;54441;52.110;5.252;2022-07-03T10:48:52;3.6;;;1.5;;
64214;SDS011;54441;52.110;5.252;2022-07-03T10:50:46;3.6;;;1.5;;
64214;SDS011;54441;52.110;5.252;2022-07-03T10:53:21;3.3;;;1.5;;
64214;SDS011;54441;52.110;5.252;2022-07-03T10:55:09;3.0;;;1.5;;
64214;SDS011;54441;52.110;5.252;2022-07-03T10:57:29;4.41;;;1.5;;
64214;SDS011;54441;52.110;5.252;2022-07-03T10:59:15;5.2;;;1.4;;
64214;SDS011;54441;52.110;5.252;2022-07-03T11:01:03;5.6;;;1.7;;
64214;SDS011;54441;52.110;5.252;2022-07-03T11:02:50;3.4;;;1.5;;
64214;SDS011;54441;52.110;5.252;2022-07-03T11:05:03;4.0;;;1.5;;
64214;SDS011;54441;52.110;5.252;2022-07-03T11:07:10;2.9;;;1.5;;
64214;SDS011;54441;52.110;5.252;2022-07-03T11:09:01;2.6;;;1.5;;
64214;SDS011;54441;52.110;5.252;2022-07-03T11:11:54;6.7;;;1.5;;
64214;SDS011;54441;52.110;5.252;2022-07-03T11:14:08;3.1;;;1.4;;
64214;SDS011;54441;52.110;5.252;2022-07-03T11:16:05;1.8;;;1.7;;
64214;SDS011;54441;52.110;5.252;2022-07-03T11:18:17;2.9;;;1.8;;
64214;SDS011;54441;52.110;5.252;2022-07-03T11:20:46;5.5;;;2.1;;
64214;SDS011;54441;52.110;5.252;2022-07-03T11:23:23;3.9;;;1.9;;
64214;SDS011;54441;52.110;5.252;2022-07-03T11:25:27;3.6;;;1.8;;
64214;SDS011;54441;52.110;5.252;2022-07-03T11:27:27;4.2;;;2.1;;
64214;SDS011;54441;52.110;5.252;2022-07-03T11:29:25;3.5;;;2.21;;
64214;SDS011;54441;52.110;5.252;2022-07-03T11:31:17;2.4;;;1.5;;
64214;SDS011;54441;52.110;5.252;2022-07-03T11:34:53;3.2;;;1.5;;
64214;SDS011;54441;52.110;5.252;2022-07-03T11:36:39;2.5;;;1.6;;
64214;SDS011;54441;52.110;5.252;2022-07-03T11:38:28;3.6;;;1.7;;
64214;SDS011;54441;52.110;5.252;2022-07-03T11:40:15;2.7;;;1.9;;
64214;SDS011;54441;52.110;5.252;2022-07-03T11:42:05;3.0;;;1.7;;
64214;SDS011;54441;52.110;5.252;2022-07-03T11:43:53;2.8;;;1.9;;
64214;SDS011;54441;52.110;5.252;2022-07-03T11:47:34;4.8;;;2.31;;
64214;SDS011;54441;52.110;5.252;2022-07-03T11:49:25;3.1;;;1.7;;
64214;SDS011;54441;52.110;5.252;2022-07-03T11:51:12;3.9;;;1.9;;
64214;SDS011;54441;52.110;5.252;2022-07-03T11:53:00;4.41;;;1.7;;
64214;SDS011;54441;52.110;5.252;2022-07-03T11:54:50;3.6;;;1.8;;
64214;SDS011;54441;52.110;5.252;2022-07-03T11:56:38;3.5;;;1.5;;
64214;SDS011;54441;52.110;5.252;2022-07-03T11:58:27;5.0;;;1.8;;
64214;SDS011;54441;52.110;5.252;2022-07-03T12:00:28;3.8;;;2.31;;
64214;SDS011;54441;52.110;5.252;2022-07-03T12:04:04;3.5;;;1.8;;
64214;SDS011;54441;52.110;5.252;2022-07-03T12:05:54;3.1;;;1.9;;
64214;SDS011;54441;52.110;5.252;2022-07-03T12:07:43;3.6;;;1.8;;
64214;SDS011;54441;52.110;5.252;2022-07-03T12:09:31;5.11;;;1.9;;
64214;SDS011;54441;52.110;5.252;2022-07-03T12:11:21;3.2;;;1.7;;
64214;SDS011;54441;52.110;5.252;2022-07-03T12:13:17;4.2;;;2.0;;
64214;SDS011;54441;52.110;5.252;2022-07-03T12:15:06;2.8;;;1.6;;
64214;SDS011;54441;52.110;5.252;2022-07-03T12:18:43;2.31;;;1.7;;
64214;SDS011;54441;52.110;5.252;2022-07-03T12:20:34;3.5;;;1.6;;
64214;SDS011;54441;52.110;5.252;2022-07-03T12:22:22;2.9;;;1.5;;
64214;SDS011;54441;52.110;5.252;2022-07-03T12:24:13;5.7;;;2.0;;
64214;SDS011;54441;52.110;5.252;2022-07-03T12:26:01;3.5;;;1.5;;
64214;SDS011;54441;52.110;5.252;2022-07-03T12:27:48;3.3;;;1.8;;
64214;SDS011;54441;52.110;5.252;2022-07-03T12:31:23;4.41;;;2.31;;
64214;SDS011;54441;52.110;5.252;2022-07-03T12:33:12;5.0;;;2.0;;
64214;SDS011;54441;52.110;5.252;2022-07-03T12:34:59;6.2;;;2.31;;
64214;SDS011;54441;52.110;5.252;2022-07-03T12:36:54;1.9;;;1.6;;
64214;SDS011;54441;52.110;5.252;2022-07-03T12:38:47;3.6;;;2.21;;
64214;SDS011;54441;52.110;5.252;2022-07-03T12:40:34;3.7;;;1.6;;
64214;SDS011;54441;52.110;5.252;2022-07-03T12:42:22;1.7;;;1.6;;
64214;SDS011;54441;52.110;5.252;2022-07-03T12:45:56;4.8;;;2.1;;
64214;SDS011;54441;52.110;5.252;2022-07-03T12:47:42;6.4;;;2.0;;
64214;SDS011;54441;52.110;5.252;2022-07-03T12:49:32;2.8;;;1.4;;
64214;SDS011;54441;52.110;5.252;2022-07-03T12:51:42;4.41;;;1.7;;
64214;SDS011;54441;52.110;5.252;2022-07-03T12:53:41;3.1;;;1.4;;
64214;SDS011;54441;52.110;5.252;2022-07-03T12:55:29;2.0;;;1.3;;
64214;SDS011;54441;52.110;5.252;2022-07-03T13:00:21;1.5;;;1.4;;
64214;SDS011;54441;52.110;5.252;2022-07-03T13:02:07;3.0;;;1.7;;
64214;SDS011;54441;52.110;5.252;2022-07-03T13:03:55;1.9;;;1.8;;
64214;SDS011;54441;52.110;5.252;2022-07-03T13:05:42;2.31;;;1.6;;
64214;SDS011;54441;52.110;5.252;2022-07-03T13:07:30;2.1;;;1.5;;
64214;SDS011;54441;52.110;5.252;2022-07-03T13:11:11;2.0;;;1.8;;
64214;SDS011;54441;52.110;5.252;2022-07-03T13:12:58;2.31;;;1.6;;